Time;durP1;ratioP1;P1;durP2;ratioP2;P2;SDS_P1;SDS_P2;PMS_P1;PMS_P2;Temp;Humidity;BMP_temperature;BMP_pressure;BME280_temperature;BME280_humidity;BME280_pressure;Samples;Min_cycle;Max_cycle;Signal;HPM_P1;HPM_P2
2024/04/04 00:00:01;;;;;;;1.35;0.90;;;;;;;;;;5072399;28;20463;-70
2024/04/04 00:02:26;;;;;;;1.08;0.93;;;;;;;;;;5090269;28;20036;-68
2024/04/04 00:05:02;;;;;;;1.20;1.10;;;;;;;;;;5090240;28;20487;-68
2024/04/04 00:07:28;;;;;;;1.38;1.27;;;;;;;;;;5090274;28;20035;-68
2024/04/04 00:09:54;;;;;;;3.20;1.05;;;;;;;;;;5072233;28;20028;-67
2024/04/04 00:12:20;;;;;;;1.98;1.60;;;;;;;;;;5071888;28;20031;-68
2024/04/04 00:14:48;;;;;;;1.45;1.05;;;;;;;;;;5071747;28;20074;-67
2024/04/04 00:17:14;;;;;;;3.05;1.30;;;;;;;;;;5072062;28;20043;-68
2024/04/04 00:19:40;;;;;;;1.77;1.05;;;;;;;;;;5090346;28;20046;-66
2024/04/04 00:22:05;;;;;;;2.75;1.23;;;;;;;;;;5090425;28;20050;-68
2024/04/04 00:24:31;;;;;;;1.50;1.40;;;;;;;;;;5089459;28;20036;-68
2024/04/04 00:26:56;;;;;;;1.40;1.17;;;;;;;;;;5071570;28;20089;-68
2024/04/04 00:29:22;;;;;;;1.48;1.38;;;;;;;;;;5089783;28;20586;-68
2024/04/04 00:31:48;;;;;;;1.85;1.48;;;;;;;;;;5071091;28;20028;-67
2024/04/04 00:34:13;;;;;;;1.48;1.25;;;;;;;;;;5089723;28;20364;-69
2024/04/04 00:36:39;;;;;;;2.10;1.33;;;;;;;;;;5071129;28;20369;-67
2024/04/04 00:39:04;;;;;;;1.30;1.15;;;;;;;;;;5071009;28;20543;-68
2024/04/04 00:41:30;;;;;;;1.83;1.40;;;;;;;;;;5071182;28;20439;-67
2024/04/04 00:43:57;;;;;;;1.63;1.48;;;;;;;;;;5071512;28;20056;-68
2024/04/04 00:46:24;;;;;;;1.42;1.30;;;;;;;;;;5089962;28;20103;-68
2024/04/04 00:48:50;;;;;;;1.42;1.30;;;;;;;;;;5071317;28;20036;-68
2024/04/04 00:51:16;;;;;;;1.60;1.50;;;;;;;;;;5073930;28;20468;-66
2024/04/04 00:53:42;;;;;;;1.50;1.40;;;;;;;;;;5093793;28;20522;-67
2024/04/04 00:56:08;;;;;;;2.22;1.23;;;;;;;;;;5075355;28;20024;-67
2024/04/04 00:58:35;;;;;;;1.55;1.45;;;;;;;;;;5075029;28;20034;-68
2024/04/04 01:01:01;;;;;;;1.60;1.20;;;;;;;;;;5074939;28;20063;-67
2024/04/04 01:03:27;;;;;;;1.23;1.20;;;;;;;;;;5075336;28;20036;-67
2024/04/04 01:05:52;;;;;;;3.90;1.67;;;;;;;;;;5074900;28;20081;-66
2024/04/04 01:08:19;;;;;;;3.58;1.60;;;;;;;;;;5075347;28;20035;-68
2024/04/04 01:10:44;;;;;;;1.65;1.35;;;;;;;;;;5093253;28;20028;-68
2024/04/04 01:13:10;;;;;;;2.13;1.63;;;;;;;;;;5075082;28;20066;-67
2024/04/04 01:15:36;;;;;;;2.63;1.30;;;;;;;;;;5074769;28;20028;-68
2024/04/04 01:18:01;;;;;;;1.92;1.50;;;;;;;;;;5093279;28;20035;-68
2024/04/04 01:20:27;;;;;;;1.35;1.25;;;;;;;;;;5074721;28;20200;-68
2024/04/04 01:22:52;;;;;;;1.58;1.48;;;;;;;;;;5074433;28;20053;-67
2024/04/04 01:25:18;;;;;;;1.60;1.48;;;;;;;;;;5074812;28;20043;-67
2024/04/04 01:27:48;;;;;;;3.80;1.80;;;;;;;;;;5074818;28;20040;-68
2024/04/04 01:30:13;;;;;;;1.95;1.40;;;;;;;;;;5092744;28;20108;-68
2024/04/04 01:32:39;;;;;;;2.17;1.70;;;;;;;;;;5074494;28;20413;-67
2024/04/04 01:35:05;;;;;;;2.03;1.40;;;;;;;;;;5074787;28;20028;-68
2024/04/04 01:37:30;;;;;;;1.60;1.50;;;;;;;;;;5074584;28;20375;-69
2024/04/04 01:39:56;;;;;;;4.32;2.08;;;;;;;;;;5092910;28;20045;-68
2024/04/04 01:42:22;;;;;;;2.63;1.67;;;;;;;;;;5074552;28;20035;-69
2024/04/04 01:44:47;;;;;;;1.60;1.50;;;;;;;;;;5092666;28;20895;-67
2024/04/04 01:47:13;;;;;;;2.10;1.90;;;;;;;;;;5092371;28;20028;-68
2024/04/04 01:49:39;;;;;;;25.67;3.38;;;;;;;;;;5074105;28;20028;-68
2024/04/04 01:52:04;;;;;;;2.88;1.65;;;;;;;;;;5074298;28;20039;-68
2024/04/04 01:54:30;;;;;;;1.85;1.70;;;;;;;;;;5074735;28;20074;-67
2024/04/04 01:56:55;;;;;;;3.33;2.03;;;;;;;;;;5074485;28;20028;-68
2024/04/04 01:59:21;;;;;;;3.90;1.70;;;;;;;;;;5074496;28;20041;-68
2024/04/04 02:01:46;;;;;;;3.67;1.77;;;;;;;;;;5073272;28;20032;-68
2024/04/04 02:04:12;;;;;;;3.00;1.88;;;;;;;;;;5074107;28;20656;-69
2024/04/04 02:06:38;;;;;;;5.25;3.95;;;;;;;;;;5073926;28;20119;-69
2024/04/04 02:09:04;;;;;;;2.10;1.90;;;;;;;;;;5092306;28;20024;-68
2024/04/04 02:11:29;;;;;;;2.40;1.90;;;;;;;;;;5092051;28;20046;-69
2024/04/04 02:13:56;;;;;;;1.83;1.50;;;;;;;;;;5073790;28;20042;-69
2024/04/04 02:16:23;;;;;;;1.88;1.45;;;;;;;;;;5092323;28;20032;-67
2024/04/04 02:18:50;;;;;;;3.25;2.00;;;;;;;;;;5092683;28;20031;-67
2024/04/04 02:21:16;;;;;;;3.55;1.58;;;;;;;;;;5075262;28;20028;-67
2024/04/04 02:23:41;;;;;;;1.83;1.73;;;;;;;;;;5074955;28;20035;-68
2024/04/04 02:26:07;;;;;;;2.75;1.90;;;;;;;;;;5092705;28;20055;-69
2024/04/04 02:28:33;;;;;;;1.98;1.73;;;;;;;;;;5074826;28;20286;-70
2024/04/04 02:30:59;;;;;;;2.92;1.88;;;;;;;;;;5092673;28;20505;-68
2024/04/04 02:33:24;;;;;;;1.50;1.40;;;;;;;;;;5093223;28;20365;-68
2024/04/04 02:35:57;;;;;;;1.40;1.30;;;;;;;;;;5093153;28;20089;-68
2024/04/04 02:38:26;;;;;;;3.63;2.15;;;;;;;;;;5075034;28;20032;-67
2024/04/04 02:40:52;;;;;;;2.70;1.55;;;;;;;;;;5073441;28;20024;-67
2024/04/04 02:43:17;;;;;;;4.03;1.70;;;;;;;;;;5091969;28;20089;-67
2024/04/04 02:45:44;;;;;;;2.38;1.73;;;;;;;;;;5091713;28;20098;-68
2024/04/04 02:48:10;;;;;;;2.45;2.08;;;;;;;;;;5091620;28;20024;-68
2024/04/04 02:50:36;;;;;;;3.70;2.22;;;;;;;;;;5091439;28;20349;-67
2024/04/04 02:53:02;;;;;;;3.90;1.83;;;;;;;;;;5091458;28;20028;-67
2024/04/04 02:55:28;;;;;;;1.73;1.63;;;;;;;;;;5072873;28;20035;-67
2024/04/04 02:57:53;;;;;;;2.17;1.83;;;;;;;;;;5072803;28;20071;-65
2024/04/04 03:00:20;;;;;;;1.88;1.70;;;;;;;;;;5091060;28;20031;-67
2024/04/04 03:02:46;;;;;;;4.55;1.83;;;;;;;;;;5072716;28;20055;-68
2024/04/04 03:05:11;;;;;;;3.05;2.17;;;;;;;;;;5090780;28;20464;-69
2024/04/04 03:07:37;;;;;;;2.70;2.10;;;;;;;;;;5090859;28;20127;-68
2024/04/04 03:10:03;;;;;;;4.15;1.63;;;;;;;;;;5091002;28;20026;-67
2024/04/04 03:12:29;;;;;;;4.72;1.70;;;;;;;;;;5073312;28;20649;-67
2024/04/04 03:14:54;;;;;;;3.80;1.88;;;;;;;;;;5072101;28;20032;-69
2024/04/04 03:17:20;;;;;;;2.55;1.80;;;;;;;;;;5072670;28;20043;-68
2024/04/04 03:19:45;;;;;;;7.82;3.28;;;;;;;;;;5090837;28;20036;-68
2024/04/04 03:22:11;;;;;;;3.17;1.92;;;;;;;;;;5090901;28;20036;-69
2024/04/04 03:24:37;;;;;;;3.67;2.00;;;;;;;;;;5090770;28;20671;-68
2024/04/04 03:27:02;;;;;;;3.05;2.10;;;;;;;;;;5072794;28;20119;-68
2024/04/04 03:29:28;;;;;;;4.43;1.75;;;;;;;;;;5090951;28;20035;-67
2024/04/04 03:31:54;;;;;;;2.08;1.70;;;;;;;;;;5090781;28;20032;-67
2024/04/04 03:34:19;;;;;;;3.50;2.03;;;;;;;;;;5072618;28;20069;-67
2024/04/04 03:36:48;;;;;;;1.80;1.70;;;;;;;;;;5073321;28;20038;-68
2024/04/04 03:39:14;;;;;;;3.85;2.10;;;;;;;;;;5092161;28;20362;-68
2024/04/04 03:41:39;;;;;;;3.05;2.30;;;;;;;;;;5074233;28;20024;-67
2024/04/04 03:44:05;;;;;;;4.65;1.75;;;;;;;;;;5073918;28;20031;-69
2024/04/04 03:46:31;;;;;;;2.85;1.88;;;;;;;;;;5074248;28;20078;-68
2024/04/04 03:48:58;;;;;;;3.53;1.75;;;;;;;;;;5072940;28;20119;-67
2024/04/04 03:51:24;;;;;;;4.10;2.00;;;;;;;;;;5072491;28;20467;-67
2024/04/04 03:53:51;;;;;;;2.67;1.90;;;;;;;;;;5090192;28;20150;-68
2024/04/04 03:56:16;;;;;;;4.85;1.75;;;;;;;;;;5072188;28;20114;-68
2024/04/04 03:58:42;;;;;;;5.75;3.30;;;;;;;;;;5089831;28;20777;-70
2024/04/04 04:01:07;;;;;;;5.80;3.38;;;;;;;;;;5071943;28;20028;-67
2024/04/04 04:03:34;;;;;;;4.72;3.42;;;;;;;;;;5090141;28;20028;-69
2024/04/04 04:06:00;;;;;;;10.77;3.50;;;;;;;;;;5071983;28;20036;-68
2024/04/04 04:08:26;;;;;;;5.43;3.42;;;;;;;;;;5071778;28;20039;-67
2024/04/04 04:10:51;;;;;;;6.20;3.20;;;;;;;;;;5090223;28;20028;-68
2024/04/04 04:13:17;;;;;;;4.75;3.75;;;;;;;;;;5090266;28;20383;-67
2024/04/04 04:15:42;;;;;;;6.63;4.05;;;;;;;;;;5071910;28;20040;-66
2024/04/04 04:18:08;;;;;;;5.55;3.72;;;;;;;;;;5090015;28;20081;-67
2024/04/04 04:23:21;;;;;;;5.22;4.18;;;;;;;;;;5090649;28;20093;-66
2024/04/04 04:25:47;;;;;;;5.93;4.55;;;;;;;;;;5073437;28;20086;-67
2024/04/04 04:28:12;;;;;;;13.82;5.22;;;;;;;;;;5094359;28;20023;-67
2024/04/04 04:30:38;;;;;;;4.25;3.65;;;;;;;;;;5075987;28;20020;-69
2024/04/04 04:33:04;;;;;;;6.95;4.40;;;;;;;;;;5075907;28;20115;-69
2024/04/04 04:35:29;;;;;;;5.18;2.92;;;;;;;;;;5094093;28;20487;-67
2024/04/04 04:37:55;;;;;;;4.65;3.33;;;;;;;;;;5094270;28;20077;-67
2024/04/04 04:40:21;;;;;;;7.75;3.58;;;;;;;;;;5076749;28;20040;-69
2024/04/04 04:42:47;;;;;;;3.88;3.17;;;;;;;;;;5076123;28;20101;-68
2024/04/04 04:45:12;;;;;;;3.30;2.08;;;;;;;;;;5094162;28;20551;-68
2024/04/04 04:47:38;;;;;;;2.92;1.83;;;;;;;;;;5075386;28;20465;-69
2024/04/04 04:50:04;;;;;;;5.93;2.22;;;;;;;;;;5093732;28;20081;-68
2024/04/04 04:52:29;;;;;;;3.63;1.80;;;;;;;;;;5075565;28;20077;-68
2024/04/04 04:54:55;;;;;;;8.15;2.33;;;;;;;;;;5093958;28;20815;-68
2024/04/04 04:57:20;;;;;;;5.03;1.80;;;;;;;;;;5075452;28;20085;-67
2024/04/04 04:59:46;;;;;;;4.13;1.98;;;;;;;;;;5075566;28;20028;-69
2024/04/04 05:02:14;;;;;;;3.38;1.85;;;;;;;;;;5075440;28;20043;-69
2024/04/04 05:04:40;;;;;;;3.72;1.77;;;;;;;;;;5074495;28;20458;-67
2024/04/04 05:07:06;;;;;;;3.95;1.83;;;;;;;;;;5074418;28;20036;-68
2024/04/04 05:09:31;;;;;;;5.45;1.90;;;;;;;;;;5074772;28;20027;-67
2024/04/04 05:11:57;;;;;;;7.30;2.20;;;;;;;;;;5092848;28;20024;-69
2024/04/04 05:14:23;;;;;;;9.70;2.10;;;;;;;;;;5093325;28;20067;-67
2024/04/04 05:16:49;;;;;;;3.00;1.90;;;;;;;;;;5074641;28;20036;-69
2024/04/04 05:19:14;;;;;;;5.68;2.20;;;;;;;;;;5074945;28;20054;-67
2024/04/04 05:21:40;;;;;;;2.45;2.22;;;;;;;;;;5074833;28;20044;-68
2024/04/04 05:24:06;;;;;;;4.10;1.75;;;;;;;;;;5085064;28;20021;-69
2024/04/04 05:26:31;;;;;;;1.95;1.42;;;;;;;;;;5049825;28;20445;-67
2024/04/04 05:28:57;;;;;;;3.85;1.67;;;;;;;;;;5091940;28;20028;-68
2024/04/04 05:31:22;;;;;;;8.88;1.55;;;;;;;;;;5093651;28;20040;-68
2024/04/04 05:33:49;;;;;;;2.90;1.35;;;;;;;;;;5092925;28;20023;-70
2024/04/04 05:36:14;;;;;;;5.50;1.75;;;;;;;;;;5092999;28;20448;-68
2024/04/04 05:38:40;;;;;;;3.97;1.50;;;;;;;;;;5073738;28;20035;-72
2024/04/04 05:41:08;;;;;;;4.53;1.40;;;;;;;;;;5092109;28;20433;-67
2024/04/04 05:43:34;;;;;;;3.35;1.52;;;;;;;;;;5069376;28;20104;-69
2024/04/04 05:46:00;;;;;;;4.50;1.35;;;;;;;;;;5070342;28;20040;-69
2024/04/04 05:48:25;;;;;;;1.45;1.00;;;;;;;;;;5059823;28;20126;-68
2024/04/04 05:50:55;;;;;;;1.70;1.30;;;;;;;;;;5072368;28;20576;-70
2024/04/04 05:53:22;;;;;;;4.75;1.20;;;;;;;;;;5057288;28;20032;-69
2024/04/04 05:55:48;;;;;;;1.65;1.23;;;;;;;;;;5084478;28;20441;-68
2024/04/04 05:58:13;;;;;;;1.40;0.98;;;;;;;;;;5068514;28;20034;-69
2024/04/04 06:00:39;;;;;;;7.05;1.70;;;;;;;;;;5083259;28;20036;-68
2024/04/04 06:03:04;;;;;;;2.17;0.90;;;;;;;;;;5068365;28;20036;-70
2024/04/04 06:05:30;;;;;;;2.47;1.25;;;;;;;;;;5091489;28;20024;-68
2024/04/04 06:07:55;;;;;;;1.73;1.08;;;;;;;;;;5071494;28;20038;-71
2024/04/04 06:10:21;;;;;;;0.85;0.70;;;;;;;;;;5073898;28;20460;-68
2024/04/04 06:12:46;;;;;;;4.20;1.10;;;;;;;;;;5090688;28;20499;-68
2024/04/04 06:15:12;;;;;;;1.40;0.93;;;;;;;;;;5062112;28;20031;-67
2024/04/04 06:17:38;;;;;;;2.55;1.20;;;;;;;;;;5070538;28;20043;-71
2024/04/04 06:20:04;;;;;;;4.82;1.70;;;;;;;;;;5069753;28;20031;-69
2024/04/04 06:22:30;;;;;;;3.17;1.20;;;;;;;;;;5089607;28;20031;-70
2024/04/04 06:24:55;;;;;;;4.30;1.13;;;;;;;;;;5087401;28;20471;-70
2024/04/04 06:27:21;;;;;;;1.65;1.23;;;;;;;;;;5081842;28;20032;-68
2024/04/04 06:29:47;;;;;;;4.70;1.88;;;;;;;;;;5071985;28;20657;-72
2024/04/04 06:32:12;;;;;;;7.47;1.40;;;;;;;;;;5085255;28;20746;-70
2024/04/04 06:34:38;;;;;;;1.13;1.02;;;;;;;;;;5073478;28;20036;-69
2024/04/04 06:37:03;;;;;;;2.55;0.80;;;;;;;;;;5087808;28;20471;-68
2024/04/04 06:39:29;;;;;;;1.58;1.30;;;;;;;;;;5081941;28;20456;-66
2024/04/04 06:41:56;;;;;;;3.13;1.20;;;;;;;;;;5067270;28;20024;-73
2024/04/04 06:44:24;;;;;;;2.90;0.90;;;;;;;;;;5080409;28;20032;-68
2024/04/04 06:46:50;;;;;;;3.88;1.35;;;;;;;;;;5073920;28;20129;-69
2024/04/04 06:49:19;;;;;;;1.15;0.63;;;;;;;;;;5079933;28;20027;-69
2024/04/04 06:51:45;;;;;;;3.22;0.80;;;;;;;;;;5081337;28;20032;-71
2024/04/04 06:54:12;;;;;;;1.65;0.60;;;;;;;;;;5078138;28;20028;-71
2024/04/04 06:56:38;;;;;;;3.55;1.20;;;;;;;;;;5067839;28;20032;-69
2024/04/04 06:59:05;;;;;;;0.68;0.47;;;;;;;;;;5067857;28;20032;-69
2024/04/04 07:01:32;;;;;;;2.08;0.80;;;;;;;;;;5068300;28;20488;-69
2024/04/04 07:03:59;;;;;;;1.05;0.52;;;;;;;;;;5066424;28;20050;-70
2024/04/04 07:06:29;;;;;;;7.68;1.20;;;;;;;;;;5068274;28;20077;-69
2024/04/04 07:08:55;;;;;;;3.83;1.10;;;;;;;;;;5079657;28;20123;-69
2024/04/04 07:11:21;;;;;;;2.03;0.73;;;;;;;;;;5086427;28;20442;-69
2024/04/04 07:13:47;;;;;;;0.90;0.70;;;;;;;;;;5065387;28;20036;-70
2024/04/04 07:16:13;;;;;;;2.65;0.50;;;;;;;;;;5081826;28;20394;-70
2024/04/04 07:18:39;;;;;;;3.33;0.85;;;;;;;;;;5067581;28;20054;-70
2024/04/04 07:21:06;;;;;;;2.22;0.65;;;;;;;;;;5078167;28;20024;-69
2024/04/04 07:23:32;;;;;;;1.85;0.80;;;;;;;;;;5080345;28;20063;-67
2024/04/04 07:25:58;;;;;;;3.58;0.60;;;;;;;;;;5087862;28;20127;-71
2024/04/04 07:28:24;;;;;;;0.65;0.43;;;;;;;;;;5074513;28;20151;-72
2024/04/04 07:30:50;;;;;;;1.02;0.70;;;;;;;;;;5065701;28;20097;-68
2024/04/04 07:33:16;;;;;;;1.60;0.40;;;;;;;;;;5067712;28;20036;-68
2024/04/04 07:35:42;;;;;;;2.13;0.85;;;;;;;;;;5080110;28;20407;-69
2024/04/04 07:38:09;;;;;;;1.70;0.60;;;;;;;;;;5066837;28;20031;-69
2024/04/04 07:40:35;;;;;;;2.67;0.77;;;;;;;;;;5070205;28;20048;-70
2024/04/04 07:43:03;;;;;;;1.00;0.70;;;;;;;;;;5066104;28;20031;-69
2024/04/04 07:45:28;;;;;;;3.28;0.50;;;;;;;;;;5052646;28;20179;-70
2024/04/04 07:47:54;;;;;;;4.78;0.82;;;;;;;;;;5078939;28;20435;-67
2024/04/04 07:50:20;;;;;;;3.88;0.80;;;;;;;;;;5067047;28;20054;-69
2024/04/04 07:52:48;;;;;;;2.63;1.02;;;;;;;;;;5062193;28;20032;-72
2024/04/04 07:55:13;;;;;;;1.98;0.75;;;;;;;;;;5087815;28;20077;-68
2024/04/04 07:57:39;;;;;;;1.75;0.70;;;;;;;;;;5066358;28;20077;-68
2024/04/04 08:00:07;;;;;;;2.17;0.52;;;;;;;;;;5081024;28;20047;-69
2024/04/04 08:02:33;;;;;;;2.35;0.80;;;;;;;;;;5068734;28;20032;-70
2024/04/04 08:04:59;;;;;;;2.72;0.50;;;;;;;;;;5046140;28;20456;-69
2024/04/04 08:07:26;;;;;;;1.20;0.63;;;;;;;;;;5086760;28;20415;-69
2024/04/04 08:09:51;;;;;;;7.32;1.17;;;;;;;;;;5069073;28;20097;-68
2024/04/04 08:12:19;;;;;;;1.98;0.73;;;;;;;;;;5059076;28;20477;-70
2024/04/04 08:14:45;;;;;;;2.65;0.55;;;;;;;;;;5067093;28;20119;-68
2024/04/04 08:17:11;;;;;;;2.63;0.77;;;;;;;;;;5052023;28;20522;-70
2024/04/04 08:19:36;;;;;;;1.95;0.68;;;;;;;;;;5075508;28;20039;-70
2024/04/04 08:22:02;;;;;;;1.77;0.50;;;;;;;;;;5073384;28;20426;-71
2024/04/04 08:24:27;;;;;;;1.73;0.70;;;;;;;;;;5068960;28;20028;-68
2024/04/04 08:26:53;;;;;;;2.88;0.93;;;;;;;;;;5076924;28;20502;-69
2024/04/04 08:29:19;;;;;;;0.93;0.60;;;;;;;;;;5064468;28;20208;-69
2024/04/04 08:31:45;;;;;;;1.23;0.63;;;;;;;;;;5076285;28;20378;-67
2024/04/04 08:34:11;;;;;;;1.73;0.32;;;;;;;;;;5065221;28;20372;-70
2024/04/04 08:36:37;;;;;;;1.75;0.60;;;;;;;;;;5072196;28;20020;-69
2024/04/04 08:39:03;;;;;;;1.08;0.60;;;;;;;;;;5062527;28;20036;-71
2024/04/04 08:41:30;;;;;;;1.42;0.85;;;;;;;;;;5066469;28;20090;-68
2024/04/04 08:43:56;;;;;;;1.73;0.80;;;;;;;;;;5079294;28;20341;-69
2024/04/04 08:46:22;;;;;;;2.03;0.70;;;;;;;;;;5070130;28;20032;-68
2024/04/04 08:48:53;;;;;;;4.38;0.95;;;;;;;;;;5056081;28;20071;-71
2024/04/04 08:51:19;;;;;;;1.80;0.70;;;;;;;;;;5077660;28;20031;-71
2024/04/04 08:53:45;;;;;;;2.53;0.80;;;;;;;;;;5062391;28;20028;-69
2024/04/04 08:56:11;;;;;;;3.90;0.98;;;;;;;;;;5077763;28;20054;-68
2024/04/04 08:58:36;;;;;;;0.90;0.40;;;;;;;;;;5065955;28;20020;-69
2024/04/04 09:01:03;;;;;;;1.67;0.73;;;;;;;;;;5068431;28;20024;-70
2024/04/04 09:03:30;;;;;;;1.60;0.80;;;;;;;;;;5083762;28;20383;-70
2024/04/04 09:05:56;;;;;;;2.47;0.70;;;;;;;;;;5073465;28;20028;-68
2024/04/04 09:08:23;;;;;;;1.42;0.77;;;;;;;;;;5067576;28;20089;-68
2024/04/04 09:10:59;;;;;;;0.80;0.63;;;;;;;;;;5084635;28;20136;-70
2024/04/04 09:13:26;;;;;;;1.70;0.75;;;;;;;;;;5083756;28;20162;-71
2024/04/04 09:15:59;;;;;;;3.03;0.90;;;;;;;;;;5068470;28;20067;-69
2024/04/04 09:18:25;;;;;;;1.77;1.10;;;;;;;;;;5061649;28;20055;-69
2024/04/04 09:20:51;;;;;;;3.40;2.60;;;;;;;;;;5050330;28;20029;-70
2024/04/04 09:23:17;;;;;;;4.10;0.93;;;;;;;;;;5061837;28;20043;-70
2024/04/04 09:25:43;;;;;;;11.73;2.42;;;;;;;;;;5084519;28;20032;-68
2024/04/04 09:28:09;;;;;;;3.88;0.93;;;;;;;;;;5085819;28;20518;-69
2024/04/04 09:30:36;;;;;;;1.83;0.60;;;;;;;;;;5081473;28;20036;-70
2024/04/04 09:33:07;;;;;;;2.13;0.70;;;;;;;;;;5067396;28;20032;-69
2024/04/04 09:35:33;;;;;;;3.00;0.80;;;;;;;;;;5066657;28;20103;-69
2024/04/04 09:37:59;;;;;;;1.15;0.90;;;;;;;;;;5064174;28;20020;-70
2024/04/04 09:40:26;;;;;;;2.58;0.60;;;;;;;;;;5070787;28;20537;-69
2024/04/04 09:42:51;;;;;;;2.15;0.50;;;;;;;;;;5072440;28;20034;-69
2024/04/04 09:45:17;;;;;;;1.83;0.88;;;;;;;;;;5067439;28;20032;-71
2024/04/04 09:47:52;;;;;;;2.17;0.55;;;;;;;;;;5048330;28;20127;-70
2024/04/04 09:50:19;;;;;;;2.00;0.50;;;;;;;;;;5067779;28;20310;-71
2024/04/04 09:52:48;;;;;;;0.77;0.40;;;;;;;;;;5086173;28;20613;-71
2024/04/04 09:55:21;;;;;;;1.45;0.70;;;;;;;;;;5089344;28;20103;-69
2024/04/04 09:57:48;;;;;;;0.75;0.30;;;;;;;;;;5068444;28;20119;-69
2024/04/04 10:00:18;;;;;;;0.85;0.35;;;;;;;;;;5082705;28;20090;-71
2024/04/04 10:02:58;;;;;;;2.95;0.88;;;;;;;;;;5086276;28;20024;-70
2024/04/04 10:05:34;;;;;;;1.85;0.50;;;;;;;;;;5072858;28;20034;-70
2024/04/04 10:08:17;;;;;;;4.03;0.93;;;;;;;;;;5065187;28;20032;-69
2024/04/04 10:10:44;;;;;;;1.02;0.50;;;;;;;;;;5068653;28;20026;-70
2024/04/04 10:13:13;;;;;;;2.83;0.60;;;;;;;;;;5083377;28;20373;-68
2024/04/04 10:15:46;;;;;;;0.90;0.52;;;;;;;;;;5059593;28;20066;-69
2024/04/04 10:18:13;;;;;;;3.30;0.57;;;;;;;;;;5080539;28;20030;-70
2024/04/04 10:20:49;;;;;;;0.95;0.40;;;;;;;;;;5075881;28;20078;-70
2024/04/04 10:23:16;;;;;;;0.65;0.35;;;;;;;;;;5074469;28;20020;-69
2024/04/04 10:25:47;;;;;;;1.08;0.40;;;;;;;;;;5077714;28;20043;-69
2024/04/04 10:28:19;;;;;;;0.82;0.30;;;;;;;;;;5059348;28;20060;-70
2024/04/04 10:30:48;;;;;;;2.58;0.40;;;;;;;;;;5086108;28;20024;-69
2024/04/04 10:33:15;;;;;;;3.03;0.55;;;;;;;;;;5066485;28;20025;-70
2024/04/04 10:35:46;;;;;;;1.02;0.30;;;;;;;;;;5067215;28;20036;-70
2024/04/04 10:38:15;;;;;;;0.82;0.35;;;;;;;;;;5054370;28;20032;-70
2024/04/04 10:40:44;;;;;;;0.47;0.32;;;;;;;;;;5085451;28;20036;-70
2024/04/04 10:43:13;;;;;;;2.65;0.57;;;;;;;;;;5064815;28;20081;-70
2024/04/04 10:45:39;;;;;;;1.23;0.50;;;;;;;;;;5068327;28;20028;-70
2024/04/04 10:48:08;;;;;;;2.03;0.55;;;;;;;;;;5079104;28;20078;-69
2024/04/04 10:50:37;;;;;;;4.53;0.70;;;;;;;;;;5064368;28;20066;-68
2024/04/04 10:53:03;;;;;;;2.63;0.77;;;;;;;;;;5069890;28;20031;-69
2024/04/04 10:55:33;;;;;;;1.67;0.90;;;;;;;;;;5088028;28;20032;-71
2024/04/04 10:57:58;;;;;;;1.35;0.50;;;;;;;;;;5072624;28;20023;-71
2024/04/04 11:00:31;;;;;;;9.43;3.33;;;;;;;;;;5070429;28;20025;-70
2024/04/04 11:03:08;;;;;;;2.90;0.70;;;;;;;;;;5066269;28;20058;-69
2024/04/04 11:05:38;;;;;;;2.78;1.30;;;;;;;;;;5065536;28;20089;-68
2024/04/04 11:08:06;;;;;;;0.93;0.40;;;;;;;;;;5078504;28;20114;-68
2024/04/04 11:10:43;;;;;;;1.15;0.40;;;;;;;;;;5088046;28;20495;-70
2024/04/04 11:13:10;;;;;;;1.73;0.60;;;;;;;;;;5075855;28;20043;-67
2024/04/04 11:15:36;;;;;;;2.58;0.90;;;;;;;;;;5070110;28;20028;-68
2024/04/04 11:18:03;;;;;;;1.95;0.80;;;;;;;;;;5065679;28;20024;-70
2024/04/04 11:20:31;;;;;;;3.95;0.60;;;;;;;;;;5077916;28;20028;-71
2024/04/04 11:22:58;;;;;;;5.10;0.80;;;;;;;;;;5063853;28;20357;-68
2024/04/04 11:25:24;;;;;;;0.77;0.60;;;;;;;;;;5067365;28;20071;-72
2024/04/04 11:27:52;;;;;;;2.25;0.80;;;;;;;;;;5083294;28;20077;-69
2024/04/04 11:30:19;;;;;;;3.35;0.80;;;;;;;;;;5082567;28;20070;-68
2024/04/04 11:32:46;;;;;;;1.20;0.80;;;;;;;;;;5080497;28;20133;-67
2024/04/04 11:35:13;;;;;;;6.80;0.60;;;;;;;;;;5082488;28;20089;-69
2024/04/04 11:37:41;;;;;;;1.85;0.50;;;;;;;;;;5080566;28;20084;-68
2024/04/04 11:40:12;;;;;;;2.20;0.73;;;;;;;;;;5064208;28;20030;-70
2024/04/04 11:42:38;;;;;;;3.42;0.80;;;;;;;;;;5084278;28;20321;-68
2024/04/04 11:45:05;;;;;;;3.17;0.85;;;;;;;;;;5064767;28;20024;-68
2024/04/04 11:47:31;;;;;;;3.60;0.98;;;;;;;;;;5065425;28;20488;-69
2024/04/04 11:49:57;;;;;;;0.60;0.40;;;;;;;;;;5064263;28;20020;-71
2024/04/04 11:52:27;;;;;;;2.38;0.38;;;;;;;;;;5068352;28;20042;-69
2024/04/04 11:54:53;;;;;;;0.68;0.43;;;;;;;;;;5084388;28;20027;-70
2024/04/04 11:57:23;;;;;;;1.42;0.38;;;;;;;;;;5075894;28;20036;-69
2024/04/04 11:59:49;;;;;;;4.28;0.60;;;;;;;;;;5087063;28;20111;-69
2024/04/04 12:02:15;;;;;;;1.85;0.52;;;;;;;;;;5084873;28;20020;-69
2024/04/04 12:04:42;;;;;;;1.25;0.80;;;;;;;;;;5080921;28;20549;-68
2024/04/04 12:07:08;;;;;;;1.13;0.60;;;;;;;;;;5075305;28;20028;-70
2024/04/04 12:09:35;;;;;;;1.33;0.90;;;;;;;;;;5078575;28;20052;-67
2024/04/04 12:12:02;;;;;;;2.40;0.50;;;;;;;;;;5064033;28;20063;-68
2024/04/04 12:14:28;;;;;;;2.53;0.55;;;;;;;;;;5066645;28;20039;-68
2024/04/04 12:16:54;;;;;;;0.95;0.88;;;;;;;;;;5086089;28;20447;-69
2024/04/04 12:19:26;;;;;;;3.60;0.50;;;;;;;;;;5077448;28;20032;-68
2024/04/04 12:21:53;;;;;;;1.92;0.80;;;;;;;;;;5057878;28;20550;-69
2024/04/04 12:24:20;;;;;;;1.58;0.63;;;;;;;;;;5065344;28;20031;-69
2024/04/04 12:26:47;;;;;;;1.10;0.65;;;;;;;;;;5066526;28;20045;-71
2024/04/04 12:29:16;;;;;;;0.60;0.60;;;;;;;;;;5068094;28;20055;-68
2024/04/04 12:31:43;;;;;;;1.27;0.80;;;;;;;;;;5069542;28;20506;-68
2024/04/04 12:34:09;;;;;;;2.42;1.20;;;;;;;;;;5062953;28;20063;-68
2024/04/04 12:36:38;;;;;;;4.72;0.90;;;;;;;;;;5080639;28;20020;-68
2024/04/04 12:39:08;;;;;;;1.88;0.80;;;;;;;;;;5067137;28;20400;-67
2024/04/04 12:41:35;;;;;;;1.75;0.70;;;;;;;;;;5079856;28;20032;-69
2024/04/04 12:44:08;;;;;;;1.90;0.45;;;;;;;;;;5057706;28;20028;-71
2024/04/04 12:46:35;;;;;;;2.45;0.70;;;;;;;;;;5064595;28;20028;-68
2024/04/04 12:49:03;;;;;;;3.85;0.52;;;;;;;;;;5071764;28;20027;-68
2024/04/04 12:51:29;;;;;;;0.63;0.50;;;;;;;;;;5068551;28;20028;-69
2024/04/04 12:53:55;;;;;;;1.85;0.50;;;;;;;;;;5067246;28;20104;-71
2024/04/04 12:56:24;;;;;;;1.70;0.50;;;;;;;;;;5083803;28;20388;-72
2024/04/04 12:58:52;;;;;;;3.40;0.68;;;;;;;;;;5061692;28;20028;-67
2024/04/04 13:01:20;;;;;;;0.80;0.40;;;;;;;;;;5067913;28;20024;-68
2024/04/04 13:03:46;;;;;;;1.98;0.60;;;;;;;;;;5064076;28;20141;-72
2024/04/04 13:06:13;;;;;;;0.73;0.50;;;;;;;;;;5071798;28;20035;-66
2024/04/04 13:08:40;;;;;;;1.52;0.57;;;;;;;;;;5085719;28;20480;-69
2024/04/04 13:11:08;;;;;;;5.10;0.60;;;;;;;;;;5049221;28;20529;-67
2024/04/04 13:13:34;;;;;;;1.25;0.73;;;;;;;;;;5065782;28;20075;-69
2024/04/04 13:16:00;;;;;;;1.90;0.40;;;;;;;;;;5064998;28;20071;-70
2024/04/04 13:18:29;;;;;;;3.97;0.80;;;;;;;;;;5071770;28;20085;-68
2024/04/04 13:20:58;;;;;;;1.48;0.65;;;;;;;;;;5081662;28;20052;-70
2024/04/04 13:23:23;;;;;;;0.45;0.40;;;;;;;;;;5071234;28;20043;-69
2024/04/04 13:25:49;;;;;;;0.73;0.60;;;;;;;;;;5084142;28;20678;-71
2024/04/04 13:28:15;;;;;;;2.92;1.52;;;;;;;;;;5088427;28;20479;-68
2024/04/04 13:30:40;;;;;;;2.47;0.70;;;;;;;;;;5073434;28;20032;-68
2024/04/04 13:33:06;;;;;;;8.90;1.83;;;;;;;;;;5076218;28;20031;-69
2024/04/04 13:35:32;;;;;;;3.00;0.85;;;;;;;;;;5080233;28;20042;-68
2024/04/04 13:37:58;;;;;;;7.30;1.23;;;;;;;;;;5049273;28;20118;-68
2024/04/04 13:40:23;;;;;;;2.67;0.93;;;;;;;;;;5059913;28;20479;-68
2024/04/04 13:42:49;;;;;;;2.35;0.40;;;;;;;;;;5072220;28;20739;-70
2024/04/04 13:45:15;;;;;;;2.60;0.63;;;;;;;;;;5071566;28;20035;-69
2024/04/04 13:47:40;;;;;;;3.60;0.80;;;;;;;;;;5073979;28;20020;-67
2024/04/04 13:50:07;;;;;;;1.02;0.50;;;;;;;;;;5069208;28;20023;-69
2024/04/04 13:52:33;;;;;;;2.38;0.55;;;;;;;;;;5091233;28;20024;-69
2024/04/04 13:54:59;;;;;;;1.05;0.30;;;;;;;;;;5089616;28;20451;-68
2024/04/04 13:57:25;;;;;;;1.55;0.30;;;;;;;;;;5069800;28;20190;-68
2024/04/04 13:59:52;;;;;;;3.05;0.40;;;;;;;;;;5069749;28;20043;-68
2024/04/04 14:02:18;;;;;;;0.52;0.35;;;;;;;;;;5090154;28;20500;-70
2024/04/04 14:04:45;;;;;;;0.63;0.40;;;;;;;;;;5084900;28;20127;-69
2024/04/04 14:07:11;;;;;;;0.40;0.30;;;;;;;;;;5082180;28;20024;-69
2024/04/04 14:09:38;;;;;;;0.60;0.30;;;;;;;;;;5076467;28;20027;-68
2024/04/04 14:12:03;;;;;;;1.50;0.15;;;;;;;;;;5081515;28;20036;-69
2024/04/04 14:14:30;;;;;;;1.30;0.28;;;;;;;;;;5066420;28;20024;-68
2024/04/04 14:16:57;;;;;;;1.40;0.35;;;;;;;;;;5077510;28;20020;-70
2024/04/04 14:19:23;;;;;;;1.55;0.38;;;;;;;;;;5069229;28;20118;-70
2024/04/04 14:21:49;;;;;;;1.10;0.35;;;;;;;;;;5085362;28;20107;-68
2024/04/04 14:24:15;;;;;;;3.80;0.35;;;;;;;;;;5089525;28;20395;-71
2024/04/04 14:26:42;;;;;;;1.67;0.85;;;;;;;;;;5077373;28;20024;-67
2024/04/04 14:29:08;;;;;;;1.98;0.30;;;;;;;;;;5055869;28;20024;-68
2024/04/04 14:31:35;;;;;;;1.50;0.50;;;;;;;;;;5066849;28;20031;-68
2024/04/04 14:34:05;;;;;;;0.50;0.30;;;;;;;;;;5072296;28;20024;-68
2024/04/04 14:36:31;;;;;;;2.50;0.50;;;;;;;;;;5058763;28;20028;-67
2024/04/04 14:38:57;;;;;;;2.25;0.50;;;;;;;;;;5070208;28;20020;-68
2024/04/04 14:41:23;;;;;;;5.07;0.75;;;;;;;;;;5070357;28;20032;-69